sensor_id;sensor_type;location;lat;lon;timestamp;P1;durP1;ratioP1;P2;durP2;ratioP2
54977;SDS011;40873;47.522;19.106;2023-07-24T00:00:34;6.07;;;3.90;;
54977;SDS011;40873;47.522;19.106;2023-07-24T00:03:22;5.75;;;4.13;;
54977;SDS011;40873;47.522;19.106;2023-07-24T00:05:49;5.05;;;3.60;;
54977;SDS011;40873;47.522;19.106;2023-07-24T00:08:16;5.38;;;3.95;;
54977;SDS011;40873;47.522;19.106;2023-07-24T00:10:43;7.10;;;4.07;;
54977;SDS011;40873;47.522;19.106;2023-07-24T00:13:10;5.88;;;3.22;;
54977;SDS011;40873;47.522;19.106;2023-07-24T00:15:38;5.75;;;3.85;;
54977;SDS011;40873;47.522;19.106;2023-07-24T00:18:05;6.65;;;4.15;;
54977;SDS011;40873;47.522;19.106;2023-07-24T00:20:32;6.63;;;3.78;;
54977;SDS011;40873;47.522;19.106;2023-07-24T00:22:59;6.50;;;4.18;;
54977;SDS011;40873;47.522;19.106;2023-07-24T00:25:26;5.28;;;3.58;;
54977;SDS011;40873;47.522;19.106;2023-07-24T00:27:53;6.00;;;3.50;;
54977;SDS011;40873;47.522;19.106;2023-07-24T00:30:20;6.13;;;4.18;;
54977;SDS011;40873;47.522;19.106;2023-07-24T00:32:47;5.95;;;3.60;;
54977;SDS011;40873;47.522;19.106;2023-07-24T00:35:14;6.75;;;4.28;;
54977;SDS011;40873;47.522;19.106;2023-07-24T00:37:41;7.18;;;4.38;;
54977;SDS011;40873;47.522;19.106;2023-07-24T00:40:08;6.85;;;4.00;;
54977;SDS011;40873;47.522;19.106;2023-07-24T00:42:36;7.70;;;3.95;;
54977;SDS011;40873;47.522;19.106;2023-07-24T00:45:03;6.78;;;4.55;;
54977;SDS011;40873;47.522;19.106;2023-07-24T00:47:31;5.65;;;3.95;;
54977;SDS011;40873;47.522;19.106;2023-07-24T00:49:58;9.63;;;4.82;;
54977;SDS011;40873;47.522;19.106;2023-07-24T00:52:25;7.00;;;4.22;;
54977;SDS011;40873;47.522;19.106;2023-07-24T00:54:52;7.43;;;3.78;;
54977;SDS011;40873;47.522;19.106;2023-07-24T00:57:20;7.15;;;4.13;;
54977;SDS011;40873;47.522;19.106;2023-07-24T00:59:47;7.40;;;4.53;;
54977;SDS011;40873;47.522;19.106;2023-07-24T01:02:14;8.05;;;4.43;;
54977;SDS011;40873;47.522;19.106;2023-07-24T01:04:41;7.50;;;4.45;;
54977;SDS011;40873;47.522;19.106;2023-07-24T01:07:08;6.78;;;4.20;;
54977;SDS011;40873;47.522;19.106;2023-07-24T01:09:35;6.50;;;3.58;;
54977;SDS011;40873;47.522;19.106;2023-07-24T01:15:06;7.13;;;4.50;;
54977;SDS011;40873;47.522;19.106;2023-07-24T01:17:42;8.00;;;4.93;;
54977;SDS011;40873;47.522;19.106;2023-07-24T01:20:15;7.13;;;4.38;;
54977;SDS011;40873;47.522;19.106;2023-07-24T01:22:57;5.50;;;4.20;;
54977;SDS011;40873;47.522;19.106;2023-07-24T01:25:35;5.55;;;4.35;;
54977;SDS011;40873;47.522;19.106;2023-07-24T01:28:06;7.85;;;4.70;;
54977;SDS011;40873;47.522;19.106;2023-07-24T01:30:34;6.25;;;3.75;;
54977;SDS011;40873;47.522;19.106;2023-07-24T01:33:01;5.18;;;4.03;;
54977;SDS011;40873;47.522;19.106;2023-07-24T01:35:29;7.88;;;4.40;;
54977;SDS011;40873;47.522;19.106;2023-07-24T01:37:58;6.68;;;4.15;;
54977;SDS011;40873;47.522;19.106;2023-07-24T01:40:27;8.88;;;4.75;;
54977;SDS011;40873;47.522;19.106;2023-07-24T01:42:53;6.93;;;4.10;;
54977;SDS011;40873;47.522;19.106;2023-07-24T01:45:23;9.57;;;4.88;;
54977;SDS011;40873;47.522;19.106;2023-07-24T01:47:50;6.47;;;4.22;;
54977;SDS011;40873;47.522;19.106;2023-07-24T01:50:17;7.55;;;4.78;;
54977;SDS011;40873;47.522;19.106;2023-07-24T01:52:44;6.63;;;4.05;;
54977;SDS011;40873;47.522;19.106;2023-07-24T01:55:12;6.68;;;4.70;;
54977;SDS011;40873;47.522;19.106;2023-07-24T01:57:38;13.35;;;5.68;;
54977;SDS011;40873;47.522;19.106;2023-07-24T02:00:06;8.82;;;5.22;;
54977;SDS011;40873;47.522;19.106;2023-07-24T02:02:33;9.13;;;5.28;;
54977;SDS011;40873;47.522;19.106;2023-07-24T02:05:01;6.97;;;4.60;;
54977;SDS011;40873;47.522;19.106;2023-07-24T02:07:27;7.53;;;5.32;;
54977;SDS011;40873;47.522;19.106;2023-07-24T02:09:55;7.22;;;5.05;;
54977;SDS011;40873;47.522;19.106;2023-07-24T02:12:21;6.32;;;4.70;;
54977;SDS011;40873;47.522;19.106;2023-07-24T02:14:49;6.00;;;4.75;;
54977;SDS011;40873;47.522;19.106;2023-07-24T02:17:18;6.75;;;4.40;;
54977;SDS011;40873;47.522;19.106;2023-07-24T02:19:45;7.57;;;5.47;;
54977;SDS011;40873;47.522;19.106;2023-07-24T02:22:12;6.28;;;4.50;;
54977;SDS011;40873;47.522;19.106;2023-07-24T02:24:39;7.88;;;5.32;;
54977;SDS011;40873;47.522;19.106;2023-07-24T02:27:06;7.50;;;4.70;;
54977;SDS011;40873;47.522;19.106;2023-07-24T02:29:33;8.35;;;5.15;;
54977;SDS011;40873;47.522;19.106;2023-07-24T02:32:00;8.57;;;5.05;;
54977;SDS011;40873;47.522;19.106;2023-07-24T02:34:27;8.60;;;5.40;;
54977;SDS011;40873;47.522;19.106;2023-07-24T02:36:55;7.50;;;5.15;;
54977;SDS011;40873;47.522;19.106;2023-07-24T02:39:22;8.65;;;5.18;;
54977;SDS011;40873;47.522;19.106;2023-07-24T02:41:49;10.48;;;5.57;;
54977;SDS011;40873;47.522;19.106;2023-07-24T02:44:16;8.80;;;5.40;;
54977;SDS011;40873;47.522;19.106;2023-07-24T02:46:43;7.90;;;5.13;;
54977;SDS011;40873;47.522;19.106;2023-07-24T02:49:10;7.20;;;4.63;;
54977;SDS011;40873;47.522;19.106;2023-07-24T02:51:37;7.20;;;4.90;;
54977;SDS011;40873;47.522;19.106;2023-07-24T02:54:04;8.75;;;5.50;;
54977;SDS011;40873;47.522;19.106;2023-07-24T02:56:32;8.82;;;5.18;;
54977;SDS011;40873;47.522;19.106;2023-07-24T02:58:59;8.45;;;5.60;;
54977;SDS011;40873;47.522;19.106;2023-07-24T03:01:26;7.07;;;4.75;;
54977;SDS011;40873;47.522;19.106;2023-07-24T03:03:54;6.88;;;4.68;;
54977;SDS011;40873;47.522;19.106;2023-07-24T03:06:20;9.10;;;5.32;;
54977;SDS011;40873;47.522;19.106;2023-07-24T03:08:47;9.00;;;4.88;;
54977;SDS011;40873;47.522;19.106;2023-07-24T03:11:14;7.07;;;4.85;;
54977;SDS011;40873;47.522;19.106;2023-07-24T03:13:42;8.38;;;5.20;;
54977;SDS011;40873;47.522;19.106;2023-07-24T03:16:09;6.68;;;4.80;;
54977;SDS011;40873;47.522;19.106;2023-07-24T03:18:36;8.25;;;5.63;;
54977;SDS011;40873;47.522;19.106;2023-07-24T03:21:03;7.97;;;4.68;;
54977;SDS011;40873;47.522;19.106;2023-07-24T03:23:30;8.25;;;4.80;;
54977;SDS011;40873;47.522;19.106;2023-07-24T03:25:57;7.70;;;5.20;;
54977;SDS011;40873;47.522;19.106;2023-07-24T03:28:24;9.65;;;4.85;;
54977;SDS011;40873;47.522;19.106;2023-07-24T03:30:52;8.75;;;5.35;;
54977;SDS011;40873;47.522;19.106;2023-07-24T03:33:20;7.63;;;5.13;;
54977;SDS011;40873;47.522;19.106;2023-07-24T03:35:47;8.88;;;4.95;;
54977;SDS011;40873;47.522;19.106;2023-07-24T03:38:14;9.15;;;5.20;;
54977;SDS011;40873;47.522;19.106;2023-07-24T03:40:41;8.80;;;5.20;;
54977;SDS011;40873;47.522;19.106;2023-07-24T03:43:08;11.20;;;5.95;;
54977;SDS011;40873;47.522;19.106;2023-07-24T03:45:35;10.07;;;5.45;;
54977;SDS011;40873;47.522;19.106;2023-07-24T03:48:02;9.90;;;5.60;;
54977;SDS011;40873;47.522;19.106;2023-07-24T03:50:29;8.38;;;6.05;;
54977;SDS011;40873;47.522;19.106;2023-07-24T03:52:57;9.38;;;5.43;;
54977;SDS011;40873;47.522;19.106;2023-07-24T03:55:24;10.63;;;6.90;;
54977;SDS011;40873;47.522;19.106;2023-07-24T03:57:51;8.82;;;5.40;;
54977;SDS011;40873;47.522;19.106;2023-07-24T04:00:18;9.13;;;6.10;;
54977;SDS011;40873;47.522;19.106;2023-07-24T04:02:46;9.23;;;5.20;;
54977;SDS011;40873;47.522;19.106;2023-07-24T04:05:13;11.10;;;5.30;;
54977;SDS011;40873;47.522;19.106;2023-07-24T04:07:41;7.80;;;5.72;;
54977;SDS011;40873;47.522;19.106;2023-07-24T04:10:08;7.85;;;5.38;;
54977;SDS011;40873;47.522;19.106;2023-07-24T04:12:35;8.50;;;5.47;;
54977;SDS011;40873;47.522;19.106;2023-07-24T04:15:02;9.65;;;5.80;;
54977;SDS011;40873;47.522;19.106;2023-07-24T04:17:29;8.20;;;4.93;;
54977;SDS011;40873;47.522;19.106;2023-07-24T04:19:56;7.40;;;4.75;;
54977;SDS011;40873;47.522;19.106;2023-07-24T04:22:24;7.72;;;5.32;;
54977;SDS011;40873;47.522;19.106;2023-07-24T04:24:51;8.85;;;5.43;;
54977;SDS011;40873;47.522;19.106;2023-07-24T04:27:19;10.20;;;5.68;;
54977;SDS011;40873;47.522;19.106;2023-07-24T04:29:45;10.93;;;6.28;;
54977;SDS011;40873;47.522;19.106;2023-07-24T04:32:13;9.00;;;6.07;;
54977;SDS011;40873;47.522;19.106;2023-07-24T04:34:39;9.40;;;6.10;;
54977;SDS011;40873;47.522;19.106;2023-07-24T04:37:07;8.48;;;5.05;;
54977;SDS011;40873;47.522;19.106;2023-07-24T04:39:33;9.93;;;5.72;;
54977;SDS011;40873;47.522;19.106;2023-07-24T04:42:01;9.23;;;5.60;;
54977;SDS011;40873;47.522;19.106;2023-07-24T04:44:28;6.75;;;5.15;;
54977;SDS011;40873;47.522;19.106;2023-07-24T04:46:55;9.93;;;5.60;;
54977;SDS011;40873;47.522;19.106;2023-07-24T04:49:22;11.32;;;5.53;;
54977;SDS011;40873;47.522;19.106;2023-07-24T04:51:50;9.25;;;6.32;;
54977;SDS011;40873;47.522;19.106;2023-07-24T04:54:17;10.48;;;6.68;;
54977;SDS011;40873;47.522;19.106;2023-07-24T04:56:44;10.10;;;6.57;;
54977;SDS011;40873;47.522;19.106;2023-07-24T04:59:11;10.43;;;6.25;;
54977;SDS011;40873;47.522;19.106;2023-07-24T05:01:38;8.88;;;6.65;;
54977;SDS011;40873;47.522;19.106;2023-07-24T05:04:05;8.98;;;5.75;;
54977;SDS011;40873;47.522;19.106;2023-07-24T05:06:32;8.63;;;5.85;;
54977;SDS011;40873;47.522;19.106;2023-07-24T05:09:01;10.93;;;6.88;;
54977;SDS011;40873;47.522;19.106;2023-07-24T05:11:29;14.75;;;6.55;;
54977;SDS011;40873;47.522;19.106;2023-07-24T05:13:56;10.98;;;6.82;;
54977;SDS011;40873;47.522;19.106;2023-07-24T05:16:23;10.57;;;5.82;;
54977;SDS011;40873;47.522;19.106;2023-07-24T05:18:50;14.20;;;6.78;;
54977;SDS011;40873;47.522;19.106;2023-07-24T05:21:17;9.50;;;6.68;;
54977;SDS011;40873;47.522;19.106;2023-07-24T05:23:44;8.55;;;5.97;;
54977;SDS011;40873;47.522;19.106;2023-07-24T05:26:11;10.43;;;6.72;;
54977;SDS011;40873;47.522;19.106;2023-07-24T05:28:38;16.08;;;8.27;;
54977;SDS011;40873;47.522;19.106;2023-07-24T05:31:05;11.23;;;7.20;;
54977;SDS011;40873;47.522;19.106;2023-07-24T05:33:32;7.72;;;5.50;;
54977;SDS011;40873;47.522;19.106;2023-07-24T05:36:03;9.60;;;6.40;;
54977;SDS011;40873;47.522;19.106;2023-07-24T05:38:30;10.18;;;6.43;;
54977;SDS011;40873;47.522;19.106;2023-07-24T05:40:58;12.10;;;7.53;;
54977;SDS011;40873;47.522;19.106;2023-07-24T05:43:26;8.80;;;6.03;;
54977;SDS011;40873;47.522;19.106;2023-07-24T05:45:54;13.10;;;7.43;;
54977;SDS011;40873;47.522;19.106;2023-07-24T05:48:23;11.30;;;6.75;;
54977;SDS011;40873;47.522;19.106;2023-07-24T05:50:51;9.00;;;5.97;;
54977;SDS011;40873;47.522;19.106;2023-07-24T05:53:18;10.20;;;6.80;;
54977;SDS011;40873;47.522;19.106;2023-07-24T05:55:45;10.90;;;7.28;;
54977;SDS011;40873;47.522;19.106;2023-07-24T05:58:12;17.23;;;7.32;;
54977;SDS011;40873;47.522;19.106;2023-07-24T06:00:39;12.18;;;7.43;;
54977;SDS011;40873;47.522;19.106;2023-07-24T06:03:06;13.57;;;6.85;;
54977;SDS011;40873;47.522;19.106;2023-07-24T06:05:35;13.23;;;6.75;;
54977;SDS011;40873;47.522;19.106;2023-07-24T06:08:02;9.70;;;6.85;;
54977;SDS011;40873;47.522;19.106;2023-07-24T06:10:29;11.93;;;7.20;;
54977;SDS011;40873;47.522;19.106;2023-07-24T06:12:56;12.88;;;8.02;;
54977;SDS011;40873;47.522;19.106;2023-07-24T06:15:23;10.85;;;6.85;;
54977;SDS011;40873;47.522;19.106;2023-07-24T06:17:50;11.55;;;7.72;;
54977;SDS011;40873;47.522;19.106;2023-07-24T06:20:20;12.57;;;6.85;;
54977;SDS011;40873;47.522;19.106;2023-07-24T06:22:47;16.67;;;7.28;;
54977;SDS011;40873;47.522;19.106;2023-07-24T06:25:14;15.18;;;6.85;;
54977;SDS011;40873;47.522;19.106;2023-07-24T06:27:41;15.57;;;7.68;;
54977;SDS011;40873;47.522;19.106;2023-07-24T06:30:08;23.38;;;8.23;;
54977;SDS011;40873;47.522;19.106;2023-07-24T06:32:41;13.35;;;8.15;;
54977;SDS011;40873;47.522;19.106;2023-07-24T06:35:08;17.50;;;7.70;;
54977;SDS011;40873;47.522;19.106;2023-07-24T06:37:35;20.10;;;8.98;;
54977;SDS011;40873;47.522;19.106;2023-07-24T06:40:03;19.85;;;9.57;;
54977;SDS011;40873;47.522;19.106;2023-07-24T06:42:30;20.50;;;8.90;;
54977;SDS011;40873;47.522;19.106;2023-07-24T06:44:57;11.73;;;8.07;;
54977;SDS011;40873;47.522;19.106;2023-07-24T06:47:24;14.05;;;7.43;;
54977;SDS011;40873;47.522;19.106;2023-07-24T06:49:52;13.95;;;8.93;;
54977;SDS011;40873;47.522;19.106;2023-07-24T06:52:19;11.75;;;7.45;;
54977;SDS011;40873;47.522;19.106;2023-07-24T06:54:46;13.60;;;8.02;;
54977;SDS011;40873;47.522;19.106;2023-07-24T06:57:13;9.05;;;6.63;;
54977;SDS011;40873;47.522;19.106;2023-07-24T06:59:40;13.77;;;7.30;;
54977;SDS011;40873;47.522;19.106;2023-07-24T07:02:07;14.23;;;7.00;;
54977;SDS011;40873;47.522;19.106;2023-07-24T07:04:34;11.02;;;6.50;;
54977;SDS011;40873;47.522;19.106;2023-07-24T07:07:01;12.57;;;6.28;;
54977;SDS011;40873;47.522;19.106;2023-07-24T07:09:28;10.85;;;6.72;;
54977;SDS011;40873;47.522;19.106;2023-07-24T07:11:55;10.05;;;5.72;;
54977;SDS011;40873;47.522;19.106;2023-07-24T07:14:23;9.05;;;6.30;;
54977;SDS011;40873;47.522;19.106;2023-07-24T07:16:49;13.88;;;6.85;;
54977;SDS011;40873;47.522;19.106;2023-07-24T07:19:17;12.43;;;7.30;;
54977;SDS011;40873;47.522;19.106;2023-07-24T07:21:43;8.95;;;6.63;;
54977;SDS011;40873;47.522;19.106;2023-07-24T07:24:11;14.00;;;6.45;;
54977;SDS011;40873;47.522;19.106;2023-07-24T07:26:38;12.68;;;7.50;;
54977;SDS011;40873;47.522;19.106;2023-07-24T07:29:05;10.95;;;6.28;;
54977;SDS011;40873;47.522;19.106;2023-07-24T07:31:32;10.43;;;7.45;;
54977;SDS011;40873;47.522;19.106;2023-07-24T07:33:59;13.95;;;7.15;;
54977;SDS011;40873;47.522;19.106;2023-07-24T07:36:26;11.98;;;6.85;;
54977;SDS011;40873;47.522;19.106;2023-07-24T07:38:54;11.40;;;7.07;;
54977;SDS011;40873;47.522;19.106;2023-07-24T07:41:21;12.75;;;7.38;;
54977;SDS011;40873;47.522;19.106;2023-07-24T07:43:48;10.98;;;6.70;;
54977;SDS011;40873;47.522;19.106;2023-07-24T07:46:15;10.40;;;6.25;;
54977;SDS011;40873;47.522;19.106;2023-07-24T07:48:42;11.82;;;7.03;;
54977;SDS011;40873;47.522;19.106;2023-07-24T07:51:09;11.38;;;7.32;;
54977;SDS011;40873;47.522;19.106;2023-07-24T07:53:36;12.63;;;6.75;;
54977;SDS011;40873;47.522;19.106;2023-07-24T07:56:03;10.43;;;6.70;;
54977;SDS011;40873;47.522;19.106;2023-07-24T07:58:31;20.02;;;6.78;;
54977;SDS011;40873;47.522;19.106;2023-07-24T08:00:58;19.50;;;6.25;;
54977;SDS011;40873;47.522;19.106;2023-07-24T08:03:25;15.93;;;6.53;;
54977;SDS011;40873;47.522;19.106;2023-07-24T08:05:56;15.13;;;6.80;;
54977;SDS011;40873;47.522;19.106;2023-07-24T08:08:24;12.93;;;6.25;;
54977;SDS011;40873;47.522;19.106;2023-07-24T08:10:51;28.45;;;7.57;;
54977;SDS011;40873;47.522;19.106;2023-07-24T08:13:19;28.40;;;7.50;;
54977;SDS011;40873;47.522;19.106;2023-07-24T08:15:46;18.67;;;7.38;;
54977;SDS011;40873;47.522;19.106;2023-07-24T08:18:13;14.48;;;6.15;;
54977;SDS011;40873;47.522;19.106;2023-07-24T08:20:40;12.48;;;6.65;;
54977;SDS011;40873;47.522;19.106;2023-07-24T08:23:07;15.48;;;6.38;;
54977;SDS011;40873;47.522;19.106;2023-07-24T08:25:34;16.52;;;6.47;;
54977;SDS011;40873;47.522;19.106;2023-07-24T08:28:01;12.60;;;5.93;;
54977;SDS011;40873;47.522;19.106;2023-07-24T08:30:32;41.83;;;8.43;;
54977;SDS011;40873;47.522;19.106;2023-07-24T08:33:00;31.58;;;7.38;;
54977;SDS011;40873;47.522;19.106;2023-07-24T08:35:28;37.00;;;8.23;;
54977;SDS011;40873;47.522;19.106;2023-07-24T08:37:55;167.63;;;19.95;;
54977;SDS011;40873;47.522;19.106;2023-07-24T08:40:22;9.93;;;6.38;;
54977;SDS011;40873;47.522;19.106;2023-07-24T08:42:49;16.15;;;7.15;;
54977;SDS011;40873;47.522;19.106;2023-07-24T08:45:19;29.63;;;7.63;;
54977;SDS011;40873;47.522;19.106;2023-07-24T08:47:47;19.55;;;5.50;;
54977;SDS011;40873;47.522;19.106;2023-07-24T08:50:15;26.33;;;7.93;;
54977;SDS011;40873;47.522;19.106;2023-07-24T08:52:43;16.48;;;6.47;;
54977;SDS011;40873;47.522;19.106;2023-07-24T08:55:13;12.88;;;5.85;;
54977;SDS011;40873;47.522;19.106;2023-07-24T08:57:40;11.07;;;6.53;;
54977;SDS011;40873;47.522;19.106;2023-07-24T09:00:07;10.38;;;6.53;;
54977;SDS011;40873;47.522;19.106;2023-07-24T09:02:35;11.10;;;6.15;;
54977;SDS011;40873;47.522;19.106;2023-07-24T09:05:02;12.30;;;6.30;;
54977;SDS011;40873;47.522;19.106;2023-07-24T09:07:30;10.50;;;6.82;;
54977;SDS011;40873;47.522;19.106;2023-07-24T09:09:58;10.60;;;6.30;;
54977;SDS011;40873;47.522;19.106;2023-07-24T09:12:25;12.00;;;6.38;;
54977;SDS011;40873;47.522;19.106;2023-07-24T09:15:04;10.32;;;6.25;;
54977;SDS011;40873;47.522;19.106;2023-07-24T09:17:33;9.88;;;6.63;;
54977;SDS011;40873;47.522;19.106;2023-07-24T09:20:01;10.55;;;6.10;;
54977;SDS011;40873;47.522;19.106;2023-07-24T09:22:30;11.75;;;6.60;;
54977;SDS011;40873;47.522;19.106;2023-07-24T09:25:00;12.27;;;5.78;;
54977;SDS011;40873;47.522;19.106;2023-07-24T09:27:29;13.90;;;6.00;;
54977;SDS011;40873;47.522;19.106;2023-07-24T09:29:58;10.32;;;6.57;;
54977;SDS011;40873;47.522;19.106;2023-07-24T09:32:26;9.70;;;6.30;;
54977;SDS011;40873;47.522;19.106;2023-07-24T09:34:54;13.80;;;7.03;;
54977;SDS011;40873;47.522;19.106;2023-07-24T09:37:27;10.05;;;5.78;;
54977;SDS011;40873;47.522;19.106;2023-07-24T09:39:57;13.75;;;6.65;;
54977;SDS011;40873;47.522;19.106;2023-07-24T09:42:29;13.80;;;6.53;;
54977;SDS011;40873;47.522;19.106;2023-07-24T09:45:18;11.73;;;5.93;;
54977;SDS011;40873;47.522;19.106;2023-07-24T09:47:49;10.73;;;7.15;;
54977;SDS011;40873;47.522;19.106;2023-07-24T09:50:25;11.57;;;6.18;;
54977;SDS011;40873;47.522;19.106;2023-07-24T09:52:53;9.48;;;6.32;;
54977;SDS011;40873;47.522;19.106;2023-07-24T09:55:23;11.73;;;6.25;;
54977;SDS011;40873;47.522;19.106;2023-07-24T09:57:56;9.63;;;6.18;;
54977;SDS011;40873;47.522;19.106;2023-07-24T10:00:25;13.90;;;6.70;;
54977;SDS011;40873;47.522;19.106;2023-07-24T10:02:53;11.90;;;6.65;;
54977;SDS011;40873;47.522;19.106;2023-07-24T10:05:21;10.07;;;6.25;;
54977;SDS011;40873;47.522;19.106;2023-07-24T10:07:48;13.73;;;6.70;;
54977;SDS011;40873;47.522;19.106;2023-07-24T10:10:16;11.45;;;7.28;;
54977;SDS011;40873;47.522;19.106;2023-07-24T10:12:43;17.33;;;7.28;;
54977;SDS011;40873;47.522;19.106;2023-07-24T10:15:11;9.45;;;5.90;;
54977;SDS011;40873;47.522;19.106;2023-07-24T10:17:39;14.82;;;7.03;;
54977;SDS011;40873;47.522;19.106;2023-07-24T10:20:09;11.65;;;6.85;;
54977;SDS011;40873;47.522;19.106;2023-07-24T10:22:40;12.30;;;6.40;;
54977;SDS011;40873;47.522;19.106;2023-07-24T10:25:09;12.95;;;7.25;;
54977;SDS011;40873;47.522;19.106;2023-07-24T10:27:47;14.38;;;6.47;;
54977;SDS011;40873;47.522;19.106;2023-07-24T10:30:16;10.80;;;6.93;;
54977;SDS011;40873;47.522;19.106;2023-07-24T10:33:34;11.95;;;6.60;;
54977;SDS011;40873;47.522;19.106;2023-07-24T10:36:04;12.07;;;6.45;;
54977;SDS011;40873;47.522;19.106;2023-07-24T10:38:36;15.05;;;7.47;;
54977;SDS011;40873;47.522;19.106;2023-07-24T10:41:07;15.98;;;7.75;;
54977;SDS011;40873;47.522;19.106;2023-07-24T10:43:45;12.90;;;7.63;;
54977;SDS011;40873;47.522;19.106;2023-07-24T10:46:15;11.73;;;6.25;;
54977;SDS011;40873;47.522;19.106;2023-07-24T10:48:47;13.63;;;7.05;;
54977;SDS011;40873;47.522;19.106;2023-07-24T10:51:16;31.27;;;8.82;;
54977;SDS011;40873;47.522;19.106;2023-07-24T10:53:44;11.05;;;6.32;;
54977;SDS011;40873;47.522;19.106;2023-07-24T10:56:15;12.43;;;7.30;;
54977;SDS011;40873;47.522;19.106;2023-07-24T10:58:43;14.73;;;7.25;;
54977;SDS011;40873;47.522;19.106;2023-07-24T11:01:11;22.58;;;8.38;;
54977;SDS011;40873;47.522;19.106;2023-07-24T11:03:40;15.18;;;7.22;;
54977;SDS011;40873;47.522;19.106;2023-07-24T11:06:12;19.58;;;6.80;;
54977;SDS011;40873;47.522;19.106;2023-07-24T11:08:41;21.17;;;8.55;;
54977;SDS011;40873;47.522;19.106;2023-07-24T11:11:08;18.27;;;7.47;;
54977;SDS011;40873;47.522;19.106;2023-07-24T11:13:35;17.50;;;7.05;;
54977;SDS011;40873;47.522;19.106;2023-07-24T11:16:05;11.23;;;6.38;;
54977;SDS011;40873;47.522;19.106;2023-07-24T11:18:43;12.60;;;6.88;;
54977;SDS011;40873;47.522;19.106;2023-07-24T11:21:22;19.70;;;7.38;;
54977;SDS011;40873;47.522;19.106;2023-07-24T11:23:51;14.38;;;7.18;;
54977;SDS011;40873;47.522;19.106;2023-07-24T11:26:20;20.20;;;6.70;;
54977;SDS011;40873;47.522;19.106;2023-07-24T11:28:52;15.10;;;7.53;;
54977;SDS011;40873;47.522;19.106;2023-07-24T11:31:20;10.95;;;6.40;;
54977;SDS011;40873;47.522;19.106;2023-07-24T11:33:48;14.70;;;6.68;;
54977;SDS011;40873;47.522;19.106;2023-07-24T11:36:16;26.02;;;7.50;;
54977;SDS011;40873;47.522;19.106;2023-07-24T11:38:45;13.88;;;6.88;;
54977;SDS011;40873;47.522;19.106;2023-07-24T11:41:12;58.55;;;10.63;;
54977;SDS011;40873;47.522;19.106;2023-07-24T11:43:47;15.80;;;6.55;;
54977;SDS011;40873;47.522;19.106;2023-07-24T11:46:25;27.17;;;7.75;;
54977;SDS011;40873;47.522;19.106;2023-07-24T11:48:54;21.13;;;6.78;;
54977;SDS011;40873;47.522;19.106;2023-07-24T11:51:25;12.50;;;6.90;;
54977;SDS011;40873;47.522;19.106;2023-07-24T11:54:08;23.85;;;8.20;;
54977;SDS011;40873;47.522;19.106;2023-07-24T11:56:37;24.63;;;7.07;;
54977;SDS011;40873;47.522;19.106;2023-07-24T11:59:11;12.73;;;6.18;;
54977;SDS011;40873;47.522;19.106;2023-07-24T12:01:39;9.57;;;5.80;;
54977;SDS011;40873;47.522;19.106;2023-07-24T12:04:06;21.65;;;6.55;;
54977;SDS011;40873;47.522;19.106;2023-07-24T12:06:34;14.00;;;6.55;;
54977;SDS011;40873;47.522;19.106;2023-07-24T12:09:03;16.92;;;6.80;;
54977;SDS011;40873;47.522;19.106;2023-07-24T12:11:32;11.15;;;6.28;;
54977;SDS011;40873;47.522;19.106;2023-07-24T12:13:59;29.95;;;8.20;;
54977;SDS011;40873;47.522;19.106;2023-07-24T12:16:27;18.48;;;6.60;;
54977;SDS011;40873;47.522;19.106;2023-07-24T12:18:55;15.80;;;6.50;;
54977;SDS011;40873;47.522;19.106;2023-07-24T12:21:22;10.93;;;6.05;;
54977;SDS011;40873;47.522;19.106;2023-07-24T12:23:49;14.15;;;6.40;;
54977;SDS011;40873;47.522;19.106;2023-07-24T12:26:16;12.35;;;6.20;;
54977;SDS011;40873;47.522;19.106;2023-07-24T12:28:43;13.00;;;6.82;;
54977;SDS011;40873;47.522;19.106;2023-07-24T12:31:10;12.20;;;6.07;;
54977;SDS011;40873;47.522;19.106;2023-07-24T12:33:37;11.77;;;7.00;;
54977;SDS011;40873;47.522;19.106;2023-07-24T12:36:04;16.95;;;5.80;;
54977;SDS011;40873;47.522;19.106;2023-07-24T12:38:31;10.30;;;5.60;;
54977;SDS011;40873;47.522;19.106;2023-07-24T12:40:58;12.07;;;5.43;;
54977;SDS011;40873;47.522;19.106;2023-07-24T12:43:25;14.27;;;5.88;;
54977;SDS011;40873;47.522;19.106;2023-07-24T12:45:52;12.68;;;5.38;;
54977;SDS011;40873;47.522;19.106;2023-07-24T12:48:19;16.25;;;6.38;;
54977;SDS011;40873;47.522;19.106;2023-07-24T12:50:47;13.00;;;6.10;;
54977;SDS011;40873;47.522;19.106;2023-07-24T12:53:14;9.57;;;5.43;;
54977;SDS011;40873;47.522;19.106;2023-07-24T12:55:48;13.25;;;5.90;;
54977;SDS011;40873;47.522;19.106;2023-07-24T12:58:16;15.98;;;8.07;;
54977;SDS011;40873;47.522;19.106;2023-07-24T13:00:42;9.98;;;6.18;;
54977;SDS011;40873;47.522;19.106;2023-07-24T13:03:10;12.40;;;5.93;;
54977;SDS011;40873;47.522;19.106;2023-07-24T13:05:37;16.17;;;6.25;;
54977;SDS011;40873;47.522;19.106;2023-07-24T13:08:04;11.82;;;6.32;;
54977;SDS011;40873;47.522;19.106;2023-07-24T13:10:31;10.27;;;5.22;;
54977;SDS011;40873;47.522;19.106;2023-07-24T13:12:59;17.17;;;6.30;;
54977;SDS011;40873;47.522;19.106;2023-07-24T13:15:27;10.57;;;6.63;;
54977;SDS011;40873;47.522;19.106;2023-07-24T13:17:56;17.92;;;6.65;;
54977;SDS011;40873;47.522;19.106;2023-07-24T13:20:24;12.45;;;6.15;;
54977;SDS011;40873;47.522;19.106;2023-07-24T13:22:51;13.00;;;6.25;;
54977;SDS011;40873;47.522;19.106;2023-07-24T13:25:18;14.27;;;6.22;;
54977;SDS011;40873;47.522;19.106;2023-07-24T13:27:45;11.23;;;5.13;;
54977;SDS011;40873;47.522;19.106;2023-07-24T13:30:12;12.55;;;5.80;;
54977;SDS011;40873;47.522;19.106;2023-07-24T13:32:39;8.68;;;4.95;;
54977;SDS011;40873;47.522;19.106;2023-07-24T13:35:07;13.55;;;6.82;;
54977;SDS011;40873;47.522;19.106;2023-07-24T13:37:34;12.90;;;5.40;;
54977;SDS011;40873;47.522;19.106;2023-07-24T13:40:01;19.33;;;6.88;;
54977;SDS011;40873;47.522;19.106;2023-07-24T13:42:28;11.32;;;6.32;;
54977;SDS011;40873;47.522;19.106;2023-07-24T13:44:55;19.30;;;7.28;;
54977;SDS011;40873;47.522;19.106;2023-07-24T13:47:22;13.68;;;6.72;;
54977;SDS011;40873;47.522;19.106;2023-07-24T13:49:49;14.57;;;7.03;;
54977;SDS011;40873;47.522;19.106;2023-07-24T13:52:17;13.75;;;6.72;;
54977;SDS011;40873;47.522;19.106;2023-07-24T13:54:43;12.73;;;7.20;;
54977;SDS011;40873;47.522;19.106;2023-07-24T13:57:12;12.43;;;7.95;;
54977;SDS011;40873;47.522;19.106;2023-07-24T13:59:39;18.17;;;8.00;;
54977;SDS011;40873;47.522;19.106;2023-07-24T14:02:07;15.23;;;8.20;;
54977;SDS011;40873;47.522;19.106;2023-07-24T14:04:34;15.00;;;7.38;;
54977;SDS011;40873;47.522;19.106;2023-07-24T14:07:01;19.13;;;8.25;;
54977;SDS011;40873;47.522;19.106;2023-07-24T14:09:28;16.13;;;7.80;;
54977;SDS011;40873;47.522;19.106;2023-07-24T14:11:55;13.35;;;7.25;;
54977;SDS011;40873;47.522;19.106;2023-07-24T14:14:22;15.27;;;8.43;;
54977;SDS011;40873;47.522;19.106;2023-07-24T14:16:50;26.85;;;8.90;;
54977;SDS011;40873;47.522;19.106;2023-07-24T14:19:17;16.83;;;8.27;;
54977;SDS011;40873;47.522;19.106;2023-07-24T14:21:44;22.77;;;7.95;;
54977;SDS011;40873;47.522;19.106;2023-07-24T14:24:11;18.25;;;8.18;;
54977;SDS011;40873;47.522;19.106;2023-07-24T14:26:39;12.23;;;8.00;;
54977;SDS011;40873;47.522;19.106;2023-07-24T14:29:06;49.88;;;11.90;;
54977;SDS011;40873;47.522;19.106;2023-07-24T14:31:33;22.65;;;9.93;;
54977;SDS011;40873;47.522;19.106;2023-07-24T14:34:00;49.63;;;10.55;;